PWSweather.com
Personal Weather Stations
Station Observations
KNHRINDG3
Converse Meadow Pond, Rindge, NH 03461

Converse Meadow PondRindge, NH 03461

Lat: 42.74, Lon: -71.98

Elevation: 1060

Station Type: Davis Vantage Pro 2

http://nhwoodworker.com/weather/index.php

Latest ConditionsUpdated 9:00:03 AM EDT Tuesday, Apr 21, 2015
Currently Today's Max Today's Min Today's Average
Temperature 46.8°F8.2°C 46.8°F8.2°C 44.2°F6.8°C 44.9°F7.2°C
Dew Point 46.5°F8.1°C 46.7°F8.2°C 43.9°F6.6°C 44.6°F7.0°C
Winds 1.2 mph N1.9 kmh N 1.2 mph N1.9 kmh N - 0.1 mph 0.2 kmh
Wind Gusts 2.3 mph3.7 kmh 2.3 mph3.7 kmh - -
Humidity 99% 100% 99% 99%
Pressure 29.54 in1000.3 mb 29.70 in1005.8 mb 29.53 in1000.0 mb -
Precipitation - 0.30 in7.6 mm - -
Hour Temp Dew Point Humidity Winds Wind Gusts Pressure Precip Precip Rate Daily Precip Total
09:00 AM 46.8°F8.2°C 46.5°F8.1°C 99% 1.2 mph N1.9 kmh N 2.3 mph3.7 kmh 29.54 in1000.3 mb - 0.00 in0.0 mm 0.30 in7.6 mm
08:50 AM 46.6°F8.1°C 46.3°F7.9°C 99% Calm Calm -- 29.54 in1000.3 mb - 0.00 in0.0 mm 0.30 in7.6 mm
08:40 AM 46.7°F8.2°C 46.7°F8.2°C 100% Calm Calm -- 29.53 in1000.0 mb - 0.00 in0.0 mm 0.30 in7.6 mm
08:30 AM 46.4°F8.0°C 46.4°F8.0°C 100% Calm Calm 1.2 mph1.9 kmh 29.53 in1000.0 mb - 0.00 in0.0 mm 0.30 in7.6 mm
08:20 AM 46.2°F7.9°C 45.9°F7.7°C 99% 1.2 mph SSW1.9 kmh SSW 1.2 mph1.9 kmh 29.54 in1000.3 mb - 0.00 in0.0 mm 0.30 in7.6 mm
08:10 AM 46.0°F7.8°C 46.0°F7.8°C 100% Calm Calm 1.2 mph1.9 kmh 29.54 in1000.3 mb - 0.00 in0.0 mm 0.30 in7.6 mm
08:00 AM 45.8°F7.7°C 45.8°F7.7°C 100% 1.2 mph SSW1.9 kmh SSW 1.2 mph1.9 kmh 29.54 in1000.3 mb - 0.00 in0.0 mm 0.30 in7.6 mm
07:50 AM 45.2°F7.3°C 44.9°F7.2°C 99% Calm Calm -- 29.53 in1000.0 mb - 0.00 in0.0 mm 0.30 in7.6 mm
07:40 AM 44.9°F7.2°C 44.6°F7.0°C 99% Calm Calm -- 29.55 in1000.7 mb - 0.00 in0.0 mm 0.30 in7.6 mm
07:30 AM 44.7°F7.1°C 44.5°F6.9°C 99% Calm Calm -- 29.55 in1000.7 mb - 0.00 in0.0 mm 0.30 in7.6 mm
07:20 AM 44.6°F7.0°C 44.3°F6.8°C 99% Calm Calm -- 29.55 in1000.7 mb - 0.00 in0.0 mm 0.30 in7.6 mm
07:10 AM 44.6°F7.0°C 44.3°F6.8°C 99% Calm Calm 1.2 mph1.9 kmh 29.54 in1000.3 mb - 0.00 in0.0 mm 0.30 in7.6 mm
07:00 AM 44.6°F7.0°C 44.3°F6.8°C 99% Calm Calm 2.3 mph3.7 kmh 29.54 in1000.3 mb - 0.00 in0.0 mm 0.30 in7.6 mm
06:50 AM 44.5°F6.9°C 44.2°F6.8°C 99% Calm Calm -- 29.55 in1000.7 mb - 0.00 in0.0 mm 0.30 in7.6 mm
06:40 AM 44.5°F6.9°C 44.2°F6.8°C 99% Calm Calm 1.2 mph1.9 kmh 29.55 in1000.7 mb - 0.00 in0.0 mm 0.30 in7.6 mm
06:30 AM 44.3°F6.8°C 44.0°F6.7°C 99% Calm Calm 1.2 mph1.9 kmh 29.54 in1000.3 mb - 0.00 in0.0 mm 0.30 in7.6 mm
06:20 AM 44.2°F6.8°C 43.9°F6.6°C 99% Calm Calm -- 29.54 in1000.3 mb - 0.00 in0.0 mm 0.30 in7.6 mm
06:10 AM 44.3°F6.8°C 44.0°F6.7°C 99% Calm Calm -- 29.55 in1000.7 mb - 0.01 in0.3 mm 0.30 in7.6 mm
06:00 AM 44.4°F6.9°C 44.1°F6.7°C 99% Calm Calm -- 29.55 in1000.7 mb - 0.00 in0.0 mm 0.29 in7.4 mm
05:50 AM 44.3°F6.8°C 44.0°F6.7°C 99% Calm Calm 1.2 mph1.9 kmh 29.55 in1000.7 mb - 0.00 in0.0 mm 0.29 in7.4 mm
05:40 AM 44.2°F6.8°C 43.9°F6.6°C 99% Calm Calm -- 29.55 in1000.7 mb - 0.00 in0.0 mm 0.29 in7.4 mm
05:30 AM 44.2°F6.8°C 43.9°F6.6°C 99% Calm Calm -- 29.55 in1000.7 mb - 0.00 in0.0 mm 0.29 in7.4 mm
05:20 AM 44.3°F6.8°C 44.0°F6.7°C 99% Calm Calm -- 29.54 in1000.3 mb - 0.00 in0.0 mm 0.29 in7.4 mm
05:10 AM 44.4°F6.9°C 44.1°F6.7°C 99% Calm Calm -- 29.56 in1001.0 mb - 0.00 in0.0 mm 0.29 in7.4 mm
05:00 AM 44.4°F6.9°C 44.1°F6.7°C 99% Calm Calm -- 29.56 in1001.0 mb - 0.00 in0.0 mm 0.29 in7.4 mm
04:50 AM 44.6°F7.0°C 44.3°F6.8°C 99% Calm Calm 2.3 mph3.7 kmh 29.56 in1001.0 mb - 0.02 in0.5 mm 0.29 in7.4 mm
04:40 AM 44.5°F6.9°C 44.2°F6.8°C 99% Calm Calm 1.2 mph1.9 kmh 29.57 in1001.4 mb - 0.00 in0.0 mm 0.27 in6.9 mm
04:30 AM 44.3°F6.8°C 44.0°F6.7°C 99% Calm Calm -- 29.54 in1000.3 mb - 0.00 in0.0 mm 0.27 in6.9 mm
04:20 AM 44.4°F6.9°C 44.1°F6.7°C 99% Calm Calm 1.2 mph1.9 kmh 29.56 in1001.0 mb - 0.01 in0.3 mm 0.27 in6.9 mm
04:10 AM 44.6°F7.0°C 44.3°F6.8°C 99% Calm Calm -- 29.57 in1001.4 mb - 0.02 in0.5 mm 0.26 in6.6 mm
03:50 AM 44.7°F7.1°C 44.4°F6.9°C 99% Calm Calm 1.2 mph1.9 kmh 29.61 in1002.7 mb - 0.08 in2.0 mm 0.19 in4.8 mm
03:40 AM 44.8°F7.1°C 44.5°F6.9°C 99% Calm Calm 1.2 mph1.9 kmh 29.61 in1002.7 mb - 0.02 in0.5 mm 0.11 in2.8 mm
03:30 AM 45.0°F7.2°C 44.7°F7.1°C 99% Calm Calm 1.2 mph1.9 kmh 29.61 in1002.7 mb - 0.00 in0.0 mm 0.09 in2.3 mm
03:20 AM 45.1°F7.3°C 44.8°F7.1°C 99% Calm Calm -- 29.61 in1002.7 mb - 0.00 in0.0 mm 0.09 in2.3 mm
03:10 AM 45.1°F7.3°C 44.8°F7.1°C 99% Calm Calm -- 29.61 in1002.7 mb - 0.01 in0.3 mm 0.09 in2.3 mm
03:00 AM 45.0°F7.2°C 44.7°F7.1°C 99% Calm Calm -- 29.61 in1002.7 mb - 0.00 in0.0 mm 0.08 in2.0 mm
02:50 AM 45.0°F7.2°C 44.7°F7.1°C 99% Calm Calm -- 29.61 in1002.7 mb - 0.00 in0.0 mm 0.08 in2.0 mm
02:40 AM 45.2°F7.3°C 44.9°F7.2°C 99% Calm Calm -- 29.61 in1002.7 mb - 0.00 in0.0 mm 0.08 in2.0 mm
02:30 AM 45.1°F7.3°C 44.8°F7.1°C 99% Calm Calm -- 29.62 in1003.0 mb - 0.00 in0.0 mm 0.08 in2.0 mm
02:20 AM 45.1°F7.3°C 44.8°F7.1°C 99% Calm Calm -- 29.62 in1003.0 mb - 0.00 in0.0 mm 0.08 in2.0 mm
02:10 AM 45.0°F7.2°C 44.8°F7.1°C 99% Calm Calm -- 29.63 in1003.4 mb - 0.01 in0.3 mm 0.08 in2.0 mm
02:00 AM 44.9°F7.2°C 44.6°F7.0°C 99% Calm Calm 1.2 mph1.9 kmh 29.64 in1003.7 mb - 0.02 in0.5 mm 0.08 in2.0 mm
01:50 AM 44.8°F7.1°C 44.5°F6.9°C 99% Calm Calm 1.2 mph1.9 kmh 29.64 in1003.7 mb - 0.01 in0.3 mm 0.06 in1.5 mm
01:40 AM 44.8°F7.1°C 44.5°F6.9°C 99% Calm Calm -- 29.65 in1004.1 mb - 0.01 in0.3 mm 0.05 in1.3 mm
01:30 AM 44.6°F7.0°C 44.4°F6.9°C 99% Calm Calm -- 29.66 in1004.4 mb - 0.00 in0.0 mm 0.04 in1.0 mm
01:20 AM 44.6°F7.0°C 44.3°F6.8°C 99% Calm Calm -- 29.66 in1004.4 mb - 0.01 in0.3 mm 0.04 in1.0 mm
01:10 AM 44.7°F7.1°C 44.4°F6.9°C 99% Calm Calm -- 29.67 in1004.7 mb - 0.01 in0.3 mm 0.03 in0.8 mm
01:00 AM 44.7°F7.1°C 44.4°F6.9°C 99% Calm Calm 1.2 mph1.9 kmh 29.68 in1005.1 mb - 0.00 in0.0 mm 0.02 in0.5 mm
12:50 AM 44.6°F7.0°C 44.3°F6.8°C 99% Calm Calm -- 29.68 in1005.1 mb - 0.00 in0.0 mm 0.02 in0.5 mm
12:40 AM 44.6°F7.0°C 44.3°F6.8°C 99% Calm Calm -- 29.69 in1005.4 mb - 0.00 in0.0 mm 0.02 in0.5 mm
12:30 AM 44.5°F6.9°C 44.2°F6.8°C 99% Calm Calm -- 29.70 in1005.8 mb - 0.02 in0.5 mm 0.02 in0.5 mm
12:20 AM 44.5°F6.9°C 44.2°F6.8°C 99% Calm Calm 2.3 mph3.7 kmh 29.70 in1005.8 mb - 0.00 in0.0 mm 0.00 in0.0 mm
12:10 AM 44.5°F6.9°C 44.2°F6.8°C 99% Calm Calm 2.3 mph3.7 kmh 29.70 in1005.8 mb - 0.00 in0.0 mm 0.00 in0.0 mm
12:00 AM 44.6°F7.0°C 44.3°F6.8°C 99% Calm Calm 1.2 mph1.9 kmh 29.70 in1005.8 mb - 0.00 in0.0 mm 0.00 in0.0 mm